ESMS/MMX METAR and TAF weather

Enter ICAO airport designator
Station Type Date Time Source
ESMS METAR 2021/08/01 17:50 UTC NOAA

ESMS 011750Z 24008KT 9999 FEW041CB SCT053 BKN078 18/11 Q1004


Station Type Date Time Source
ESMS Decoded METAR 2021/08/01 17:50 UTC NOAA

Malmo / Sturup, Sweden (ESMS) 55-33N 013-22E
Aug 01, 2021 - 01:50 PM EDT / 2021.08.01 1750 UTC
Wind: from the WSW (240 degrees) at 9 MPH (8 KT):0
Visibility: greater than 7 mile(s):0
Sky conditions: mostly cloudy
Weather: Cumulonimbus clouds observed
Temperature: 64 F (18 C)
Dew Point: 51 F (11 C)
Relative Humidity: 63%
Pressure (altimeter): 29.65 in. Hg (1004 hPa)
ob: ESMS 011750Z 24008KT 9999 FEW041CB SCT053 BKN078 18/11 Q1004
cycle: 18

Station Type Date Time Source
ESMS TAF 2021/08/01 18:09 UTC NOAA

TAF TAF ESMS 011703Z 0118/0218 24010KT 9999 SCT030
TEMPO 0203/0209 SHRA SCT010 BKN020CB
TEMPO 0206/0215 26015G28KT

Example: see airport list